Time;durP1;ratioP1;P1;durP2;ratioP2;P2;SDS_P1;SDS_P2;PMS_P1;PMS_P2;Temp;Humidity;BMP_temperature;BMP_pressure;BME280_temperature;BME280_humidity;BME280_pressure;Samples;Min_cycle;Max_cycle;Signal;HPM_P1;HPM_P2
2022/05/23 00:02:12;;;;;;;39.67;3.92;;;;;;;24.25;56.06;99150.88;7312165;19;129129;-38
2022/05/23 00:04:37;;;;;;;;;;;;;;;24.34;55.56;99142.00;7311878;19;129083;-38
2022/05/23 00:07:06;;;;;;;24.10;2.47;;;;;;;24.27;54.62;99143.66;7310149;19;129518;-41
2022/05/23 00:09:31;;;;;;;27.10;2.80;;;;;;;24.28;56.05;99142.66;7311820;19;130809;-41
2022/05/23 00:11:56;;;;;;;29.27;3.13;;;;;;;24.27;55.24;99138.41;7310965;19;156033;-39
2022/05/23 00:14:21;;;;;;;17.38;2.05;;;;;;;24.30;55.73;99142.50;7309680;19;154144;-38
2022/05/23 00:16:49;;;;;;;26.97;2.80;;;;;;;24.27;55.70;99142.84;7308931;19;158272;-38
2022/05/23 00:19:16;;;;;;;34.40;3.63;;;;;;;24.25;54.83;99139.53;7311603;19;130073;-37
2022/05/23 00:21:45;;;;;;;19.08;2.13;;;;;;;24.25;54.97;99135.13;7311370;19;129523;-38
2022/05/23 00:24:13;;;;;;;19.33;2.50;;;;;;;24.27;56.09;99132.31;7309942;19;129039;-38
2022/05/23 00:26:39;;;;;;;19.17;2.40;;;;;;;24.26;55.25;99130.69;7309782;19;131139;-37
2022/05/23 00:29:04;;;;;;;48.95;4.80;;;;;;;24.27;55.45;99127.91;7309846;19;130103;-37
2022/05/23 00:31:30;;;;;;;19.75;2.08;;;;;;;24.27;55.00;99127.91;7310690;19;132491;-37
2022/05/23 00:36:39;;;;;;;25.33;2.60;;;;;;;24.26;55.09;99115.72;7317094;19;129129;-38
2022/05/23 00:39:05;;;;;;;38.63;3.85;;;;;;;24.27;55.59;99117.38;7316106;19;159879;-38
2022/05/23 00:44:25;;;;;;;27.10;2.42;;;;;;;24.19;54.85;99080.63;7317001;19;128763;-39
2022/05/23 00:46:53;;;;;;;16.85;2.13;;;;;;;24.29;56.01;99099.66;7316296;19;129230;-39
2022/05/23 00:49:23;;;;;;;23.13;2.38;;;;;;;24.24;55.63;99090.63;7317130;19;130729;-39
2022/05/23 00:51:49;;;;;;;33.80;3.28;;;;;;;24.25;55.43;99087.00;7317875;19;130146;-39
2022/05/23 00:54:15;;;;;;;15.63;1.85;;;;;;;24.28;55.45;99087.50;7317986;19;129322;-40
2022/05/23 00:56:44;;;;;;;24.47;2.47;;;;;;;24.27;55.89;99080.59;7316568;19;129469;-39
2022/05/23 00:59:13;;;;;;;28.55;3.00;;;;;;;24.26;55.97;99081.59;7315626;19;129542;-39
2022/05/23 01:01:40;;;;;;;16.00;2.03;;;;;;;24.25;55.78;99072.06;7316383;19;129633;-39
2022/05/23 01:04:06;;;;;;;23.80;2.33;;;;;;;24.25;55.26;99068.63;7317461;19;130095;-40
2022/05/23 01:06:31;;;;;;;24.47;2.60;;;;;;;24.28;56.11;99076.16;7314238;19;129791;-40
2022/05/23 01:08:57;;;;;;;44.20;4.45;;;;;;;24.26;55.21;99073.69;7317038;19;130025;-37
2022/05/23 01:11:23;;;;;;;23.08;2.20;;;;;;;24.28;55.45;99070.91;7317026;19;129522;-38
2022/05/23 01:13:48;;;;;;;27.50;2.80;;;;;;;24.25;54.68;99074.69;7316094;19;129774;-38
2022/05/23 01:16:13;;;;;;;18.63;2.25;;;;;;;24.26;55.90;99071.06;7315272;19;129533;-38
2022/05/23 01:18:39;;;;;;;27.65;2.65;;;;;;;24.29;55.55;99072.56;7313919;19;158469;-37
2022/05/23 01:21:09;;;;;;;25.03;2.50;;;;;;;24.26;55.63;99057.94;7315433;19;128827;-37
2022/05/23 01:23:47;;;;;;;25.88;2.63;;;;;;;24.30;55.53;99061.03;7315403;19;128827;-37
2022/05/23 01:26:12;;;;;;;16.02;1.83;;;;;;;24.19;55.44;99046.50;7313408;19;129300;-41
2022/05/23 01:28:40;;;;;;;27.83;2.85;;;;;;;24.29;55.88;99064.69;7313088;19;129712;-37
2022/05/23 01:31:07;;;;;;;23.38;2.38;;;;;;;24.25;55.04;99048.44;7315196;19;128947;-41
2022/05/23 01:33:32;;;;;;;23.67;2.30;;;;;;;24.29;55.51;99059.41;7315232;19;129199;-38
2022/05/23 01:35:59;;;;;;;18.38;1.90;;;;;;;24.28;55.31;99050.72;7314762;19;159202;-39
2022/05/23 01:38:25;;;;;;;17.73;1.85;;;;;;;24.27;56.01;99043.00;7313762;19;130466;-40
2022/05/23 01:40:50;;;;;;;29.35;2.90;;;;;;;24.25;55.98;99035.28;7314936;19;129345;-40
2022/05/23 01:43:16;;;;;;;22.20;2.25;;;;;;;24.25;56.02;99040.53;7316215;19;129121;-38
2022/05/23 01:45:42;;;;;;;50.60;4.57;;;;;;;24.28;55.40;99034.13;7308803;19;158269;-40
2022/05/23 01:48:07;;;;;;;13.57;1.80;;;;;;;24.26;55.85;99026.41;7313109;19;129606;-41
2022/05/23 01:50:33;;;;;;;20.55;1.95;;;;;;;24.28;55.45;99023.59;7314331;19;128987;-38
2022/05/23 01:52:58;;;;;;;31.37;2.90;;;;;;;24.26;55.41;99021.16;7315631;19;129102;-40
2022/05/23 01:55:23;;;;;;;20.75;2.13;;;;;;;24.25;55.35;99016.91;7313161;19;158180;-38
2022/05/23 01:57:49;;;;;;;28.13;2.53;;;;;;;24.15;55.16;99000.53;7312069;19;157942;-38
2022/05/23 02:03:00;;;;;;;21.35;2.13;;;;;;;24.26;54.92;99021.16;7316769;19;129367;-40
2022/05/23 02:05:26;;;;;;;29.50;3.20;;;;;;;24.22;55.69;99017.25;7313094;19;130113;-37
2022/05/23 02:07:55;;;;;;;28.77;2.65;;;;;;;24.27;55.92;99016.72;7311587;19;130106;-37
2022/05/23 02:10:21;;;;;;;29.20;2.80;;;;;;;24.25;55.64;99024.78;7314730;19;129214;-39
2022/05/23 02:12:47;;;;;;;37.73;3.73;;;;;;;24.25;55.92;99035.28;7310700;19;154845;-40
2022/05/23 02:15:12;;;;;;;25.10;2.60;;;;;;;24.28;55.84;99042.00;7314223;19;129456;-39
2022/05/23 02:17:38;;;;;;;15.37;1.93;;;;;;;24.25;55.29;99030.03;7311016;19;129417;-38
2022/05/23 02:20:06;;;;;;;24.63;2.43;;;;;;;24.26;55.84;99036.91;7313685;19;128912;-39
2022/05/23 02:22:31;;;;;;;26.75;2.45;;;;;;;24.23;55.26;99032.00;7314262;19;129352;-38
2022/05/23 02:24:56;;;;;;;33.53;3.33;;;;;;;24.26;55.20;99030.88;7311268;19;159026;-40
2022/05/23 02:27:22;;;;;;;4.43;0.95;;;;;;;24.27;55.16;99038.56;7312531;19;133935;-38
2022/05/23 02:29:47;;;;;;;30.87;2.77;;;;;;;24.25;55.90;99048.44;7313782;19;128884;-41
2022/05/23 02:32:12;;;;;;;46.85;4.10;;;;;;;24.25;55.80;99043.19;7312916;19;139273;-36
2022/05/23 02:34:37;;;;;;;23.80;2.50;;;;;;;24.24;55.52;99032.84;7314946;19;130493;-39
2022/05/23 02:37:03;;;;;;;19.93;1.97;;;;;;;24.24;55.33;99041.56;7311513;19;154063;-39
2022/05/23 02:39:28;;;;;;;26.30;2.53;;;;;;;24.23;55.84;99042.53;7314575;19;130800;-38
2022/05/23 02:41:54;;;;;;;32.23;3.07;;;;;;;24.25;56.22;99035.28;7312919;19;154613;-39
2022/05/23 02:44:19;;;;;;;18.97;1.87;;;;;;;24.24;55.55;99032.84;7315091;19;129231;-39
2022/05/23 02:46:45;;;;;;;44.78;3.92;;;;;;;24.18;55.89;99021.19;7307573;19;156084;-39
2022/05/23 02:49:11;;;;;;;33.83;3.27;;;;;;;24.24;55.54;99036.28;7313160;19;153480;-38
2022/05/23 02:51:37;;;;;;;16.55;1.90;;;;;;;24.24;55.49;99033.66;7314077;19;129311;-38
2022/05/23 02:54:02;;;;;;;33.47;3.00;;;;;;;24.23;55.80;99021.50;7312815;19;129945;-39
2022/05/23 02:56:28;;;;;;;26.73;2.88;;;;;;;24.22;55.74;99022.50;7311371;19;129388;-38
2022/05/23 02:58:53;;;;;;;21.38;2.10;;;;;;;24.20;56.01;99016.59;7310969;19;155806;-37
2022/05/23 03:01:19;;;;;;;36.67;3.40;;;;;;;24.24;55.45;99019.69;7311596;19;154670;-39
2022/05/23 03:03:44;;;;;;;25.20;2.57;;;;;;;24.23;55.71;99016.25;7313701;19;131013;-38
2022/05/23 03:06:10;;;;;;;26.05;2.60;;;;;;;24.23;55.96;99016.25;7310722;19;130923;-40
2022/05/23 03:08:36;;;;;;;24.83;2.60;;;;;;;24.25;55.02;99006.41;7307877;19;155181;-38
2022/05/23 03:11:04;;;;;;;21.05;2.13;;;;;;;24.25;55.49;99005.56;7313320;19;132601;-40
2022/05/23 03:13:30;;;;;;;19.15;1.77;;;;;;;24.25;55.28;99014.28;7311814;19;129726;-38
2022/05/23 03:15:56;;;;;;;39.97;3.28;;;;;;;24.18;55.59;98997.56;7308794;19;129525;-40
2022/05/23 03:18:24;;;;;;;45.47;3.95;;;;;;;24.22;55.22;99004.13;7309696;19;129405;-38
2022/05/23 03:20:59;;;;;;;25.65;2.40;;;;;;;24.27;55.49;99007.06;7310439;19;129519;-39
2022/05/23 03:28:53;;;;;;;6.65;1.10;;;;;;;24.24;55.93;98998.69;7313713;19;130228;-38
2022/05/23 03:31:18;;;;;;;19.87;1.87;;;;;;;24.24;56.42;99004.78;7311566;19;154335;-38
2022/05/23 03:33:43;;;;;;;26.75;2.58;;;;;;;24.23;54.94;99000.50;7313165;19;129172;-38
2022/05/23 03:36:09;;;;;;;20.33;2.25;;;;;;;24.26;54.76;99004.59;7311121;19;158349;-39
2022/05/23 03:38:35;;;;;;;40.20;3.90;;;;;;;24.23;56.10;99000.50;7307309;19;154448;-38
2022/05/23 03:41:09;;;;;;;25.33;2.35;;;;;;;24.23;55.78;99000.50;7311951;19;129035;-38
2022/05/23 03:43:34;;;;;;;28.95;2.65;;;;;;;24.22;55.94;99012.00;7311456;19;130661;-38
2022/05/23 03:46:13;;;;;;;18.65;1.70;;;;;;;24.26;55.97;99005.41;7310171;19;129563;-39
2022/05/23 03:48:40;;;;;;;40.92;3.80;;;;;;;24.24;55.84;99012.66;7309089;19;129749;-37
2022/05/23 03:51:06;;;;;;;25.03;2.40;;;;;;;24.24;55.71;99014.44;7310782;19;129515;-37
2022/05/23 03:53:32;;;;;;;;;;;;;;;24.34;55.83;99022.94;7311271;19;131324;-41
2022/05/23 03:55:57;;;;;;;26.08;2.47;;;;;;;24.27;55.68;99022.81;7311133;19;130365;-39
2022/05/23 03:58:25;;;;;;;41.07;3.77;;;;;;;24.26;55.91;99013.28;7308046;19;140593;-37
2022/05/23 04:00:51;;;;;;;40.25;3.83;;;;;;;24.13;55.31;98999.88;7310095;19;129199;-37
2022/05/23 04:03:18;;;;;;;21.03;2.27;;;;;;;24.22;55.37;99011.16;7311998;19;130263;-38
2022/05/23 04:05:43;;;;;;;;;;;;;;;24.33;56.06;99011.63;7308367;19;132181;-37
2022/05/23 04:08:09;;;;;;;25.33;2.33;;;;;;;24.28;55.37;99008.69;7307389;19;129173;-38
2022/05/23 04:10:35;;;;;;;19.25;1.75;;;;;;;24.25;56.06;99009.03;7307951;19;129834;-38
2022/05/23 04:13:02;;;;;;;20.70;1.83;;;;;;;24.22;55.64;99004.13;7311329;19;129880;-38
2022/05/23 04:15:28;;;;;;;60.65;5.30;;;;;;;24.23;56.07;99010.16;7308766;19;129453;-39
2022/05/23 04:17:54;;;;;;;40.05;3.67;;;;;;;24.22;55.59;99014.63;7308195;19;130856;-38
2022/05/23 04:20:20;;;;;;;17.90;1.73;;;;;;;24.23;56.07;99013.63;7309205;19;130025;-37
2022/05/23 04:22:45;;;;;;;22.93;2.27;;;;;;;24.23;56.03;99011.00;7309320;19;130013;-39
2022/05/23 04:25:10;;;;;;;11.83;1.50;;;;;;;24.22;56.01;99014.63;7307300;19;158047;-40
2022/05/23 04:27:35;;;;;;;19.85;2.03;;;;;;;24.25;55.46;99014.28;7305852;19;151281;-38
2022/05/23 04:30:03;;;;;;;47.50;4.50;;;;;;;24.23;56.03;99018.88;7308944;19;129086;-38
2022/05/23 04:35:15;;;;;;;26.77;2.60;;;;;;;24.23;56.46;99010.16;7310682;19;129311;-38
2022/05/23 04:37:42;;;;;;;15.52;1.55;;;;;;;24.21;55.15;99001.66;7306844;19;129060;-42
2022/05/23 04:40:08;;;;;;;51.83;4.82;;;;;;;24.21;54.82;99006.91;7306443;19;129922;-38
2022/05/23 04:42:34;;;;;;;24.35;2.58;;;;;;;24.23;55.31;98999.66;7308449;19;130795;-37
2022/05/23 04:45:00;;;;;;;36.70;2.97;;;;;;;24.24;56.04;99002.16;7308190;19;131400;-38
2022/05/23 04:50:09;;;;;;;55.35;5.00;;;;;;;24.21;55.77;99002.47;7306932;19;129555;-38
2022/05/23 04:52:34;;;;;;;30.33;2.63;;;;;;;24.22;55.18;99004.13;7307700;19;158576;-38
2022/05/23 04:55:00;;;;;;;51.22;4.32;;;;;;;24.21;55.82;99009.53;7307102;19;158442;-38
2022/05/23 04:57:25;;;;;;;23.50;2.05;;;;;;;24.22;55.95;99009.38;7306129;19;153504;-38
2022/05/23 04:59:50;;;;;;;27.70;2.53;;;;;;;24.23;56.09;98995.22;7308392;19;153406;-38
2022/05/23 05:02:15;;;;;;;32.03;3.17;;;;;;;24.20;56.36;98989.50;7306479;19;157498;-38
2022/05/23 05:04:41;;;;;;;29.90;2.78;;;;;;;24.22;55.74;98993.59;7308857;19;129690;-38
2022/05/23 05:07:06;;;;;;;26.70;2.40;;;;;;;24.20;55.31;98990.31;7304153;19;154318;-37
2022/05/23 05:09:32;;;;;;;32.33;2.95;;;;;;;24.12;55.54;98977.22;7307808;19;130291;-38
2022/05/23 05:11:58;;;;;;;18.83;1.63;;;;;;;24.21;55.45;98976.19;7309589;19;130119;-38
2022/05/23 05:14:23;;;;;;;31.20;2.63;;;;;;;24.21;55.68;98976.19;7306756;19;159239;-38
2022/05/23 05:16:49;;;;;;;42.43;3.47;;;;;;;24.19;55.13;98966.88;7306972;19;156071;-37
2022/05/23 05:19:14;;;;;;;52.40;4.57;;;;;;;24.17;56.38;98953.91;7309200;19;129057;-38
2022/05/23 05:21:40;;;;;;;30.40;2.55;;;;;;;24.20;55.60;98964.06;7313642;19;130108;-37
2022/05/23 05:24:05;;;;;;;15.18;1.63;;;;;;;24.21;56.05;98962.25;7313553;19;159235;-38
2022/05/23 05:26:31;;;;;;;54.45;4.57;;;;;;;24.20;54.80;98948.31;7312442;19;131076;-38
2022/05/23 05:28:56;;;;;;;42.07;3.83;;;;;;;24.21;55.94;98954.38;7313568;19;130119;-38
2022/05/23 05:31:28;;;;;;;23.48;2.03;;;;;;;24.21;56.16;98955.19;7313345;19;154755;-38
2022/05/23 05:34:00;;;;;;;41.88;3.33;;;;;;;24.21;56.27;98946.50;7314095;19;130427;-37
2022/05/23 05:36:32;;;;;;;25.95;2.30;;;;;;;24.19;55.94;98941.41;7313930;19;128972;-38
2022/05/23 05:39:03;;;;;;;35.00;2.95;;;;;;;24.18;56.08;98950.28;7314467;19;129817;-38
2022/05/23 05:41:48;;;;;;;28.05;2.70;;;;;;;24.21;55.67;98936.78;7303804;19;130678;-38
2022/05/23 05:44:19;;;;;;;25.90;2.35;;;;;;;24.21;55.77;98934.16;7313648;19;129597;-38
2022/05/23 05:46:48;;;;;;;32.00;2.97;;;;;;;24.20;55.79;98935.16;7311131;19;130083;-37
2022/05/23 05:49:19;;;;;;;29.52;2.72;;;;;;;24.20;56.39;98932.53;7312963;19;130058;-38
2022/05/23 05:51:48;;;;;;;40.90;3.65;;;;;;;24.13;55.91;98904.53;7306087;19;130801;-37
2022/05/23 05:54:19;;;;;;;29.63;2.83;;;;;;;24.17;55.93;98922.38;7310848;19;129847;-37
2022/05/23 05:56:45;;;;;;;36.75;3.15;;;;;;;24.17;56.30;98922.38;7313255;19;128920;-37
2022/05/23 05:59:12;;;;;;;32.95;2.75;;;;;;;24.19;55.78;98911.69;7312673;19;129238;-38
2022/05/23 06:01:37;;;;;;;40.55;3.63;;;;;;;24.18;55.84;98903.00;7313686;19;129324;-37
2022/05/23 06:04:02;;;;;;;23.75;2.22;;;;;;;24.18;56.04;98903.00;7312936;19;129574;-38
2022/05/23 06:11:55;;;;;;;51.70;4.70;;;;;;;24.21;55.82;98917.59;7309926;19;130528;-38
2022/05/23 06:14:21;;;;;;;16.02;1.73;;;;;;;24.20;55.05;98927.28;7307609;19;159411;-37
2022/05/23 06:16:46;;;;;;;68.03;6.10;;;;;;;24.20;55.45;98937.78;7304066;19;156175;-38
2022/05/23 06:19:11;;;;;;;32.30;2.93;;;;;;;24.18;55.44;98918.75;7307469;19;139053;-38
2022/05/23 06:21:37;;;;;;;27.00;2.57;;;;;;;24.17;55.48;98909.25;7305982;19;158501;-38
2022/05/23 06:24:02;;;;;;;44.25;3.95;;;;;;;23.89;51.19;98918.53;7309636;19;130998;-38
2022/05/23 06:26:27;;;;;;;21.90;2.20;;;;;;;23.59;49.73;98910.59;7308312;19;129187;-37
2022/05/23 06:28:53;;;;;;;51.80;4.60;;;;;;;23.42;49.55;98920.31;7308300;19;145024;-38
2022/05/23 06:31:19;;;;;;;60.92;5.07;;;;;;;23.41;49.83;98918.69;7306038;19;158573;-38
2022/05/23 06:33:45;;;;;;;18.75;2.03;;;;;;;23.34;49.39;98912.47;7308757;19;132234;-38
2022/05/23 06:36:12;;;;;;;46.63;4.10;;;;;;;23.35;48.83;98908.06;7306162;19;141498;-37
2022/05/23 06:38:38;;;;;;;26.30;2.25;;;;;;;23.33;48.56;98897.75;7306603;19;130627;-38
2022/05/23 06:41:06;;;;;;;53.42;4.60;;;;;;;23.38;48.34;98898.06;7308362;19;129237;-38
2022/05/23 06:43:33;;;;;;;41.20;3.70;;;;;;;23.41;48.09;98887.22;7306612;19;130539;-37
2022/05/23 06:45:59;;;;;;;;;;;;;;;23.39;48.23;98886.56;7309182;19;129200;-38
2022/05/23 06:48:25;;;;;;;55.75;5.05;;;;;;;23.43;48.04;98885.25;7305994;19;130738;-37
2022/05/23 06:50:50;;;;;;;46.08;3.75;;;;;;;23.44;47.36;98897.38;7301003;19;129336;-37
2022/05/23 06:53:19;;;;;;;39.37;3.53;;;;;;;23.45;47.44;98887.72;7307010;19;130029;-38
2022/05/23 06:55:44;;;;;;;29.75;2.63;;;;;;;23.47;47.16;98889.16;7310065;19;129439;-38
2022/05/23 06:58:10;;;;;;;42.58;3.80;;;;;;;23.47;47.23;98886.53;7308073;19;130021;-38
2022/05/23 07:00:36;;;;;;;24.87;2.17;;;;;;;23.49;47.36;98884.56;7311593;19;129767;-37
2022/05/23 07:03:02;;;;;;;15.60;1.63;;;;;;;23.52;47.53;98889.47;7311087;19;129681;-38
2022/05/23 07:13:39;;;;;;;27.63;2.30;;;;;;;23.55;46.96;98890.97;7311396;19;129137;-37
2022/05/23 07:16:05;;;;;;;34.67;2.95;;;;;;;23.57;47.26;98889.78;7307985;19;143461;-39
2022/05/23 07:18:31;;;;;;;24.70;2.13;;;;;;;23.57;47.20;98897.66;7307370;19;129939;-41
2022/05/23 07:20:57;;;;;;;;;;;;;;;23.56;46.26;98893.41;7310025;19;129444;-40
2022/05/23 07:23:22;;;;;;;23.80;2.07;;;;;;;23.59;46.98;98893.06;7305916;19;159190;-38
2022/05/23 07:25:47;;;;;;;29.85;2.45;;;;;;;23.58;46.44;98903.72;7309598;19;153910;-40
2022/05/23 07:28:13;;;;;;;43.13;4.03;;;;;;;23.59;46.56;98906.19;7305859;19;154002;-37
2022/05/23 07:30:39;;;;;;;30.10;2.60;;;;;;;23.58;46.78;98894.06;7310587;19;131051;-39
2022/05/23 07:33:04;;;;;;;28.63;2.27;;;;;;;23.61;46.59;98893.72;7309920;19;129237;-38
2022/05/23 07:35:29;;;;;;;49.97;4.70;;;;;;;23.63;46.50;98891.75;7308567;19;130185;-39
2022/05/23 07:37:55;;;;;;;30.50;2.50;;;;;;;23.63;46.11;98891.75;7305350;19;153026;-37
2022/05/23 07:40:20;;;;;;;24.85;2.15;;;;;;;23.65;46.13;98886.34;7308849;19;158553;-39
2022/05/23 07:42:46;;;;;;;21.30;1.93;;;;;;;23.64;46.48;98880.25;7307496;19;130324;-41
2022/05/23 07:45:12;;;;;;;30.80;2.60;;;;;;;23.55;46.72;98864.72;7305403;19;130127;-41
2022/05/23 07:47:38;;;;;;;65.13;5.80;;;;;;;23.65;46.70;98881.88;7303235;19;131006;-38
2022/05/23 07:50:08;;;;;;;31.70;2.92;;;;;;;23.65;45.91;98879.25;7306105;19;129929;-38
2022/05/23 07:52:34;;;;;;;27.50;2.40;;;;;;;23.65;46.49;98876.63;7307380;19;130468;-39
2022/05/23 08:00:31;;;;;;;33.67;2.92;;;;;;;23.70;46.23;98876.16;7309036;19;130181;-40
2022/05/23 08:02:59;;;;;;;42.92;4.18;;;;;;;23.68;46.44;98875.50;7305032;19;131368;-40
2022/05/23 08:05:24;;;;;;;39.65;3.53;;;;;;;23.62;46.34;98863.84;7309119;19;128936;-40
2022/05/23 08:07:50;;;;;;;37.97;3.20;;;;;;;23.68;46.77;98872.88;7306142;19;130696;-39
2022/05/23 08:10:15;;;;;;;22.88;1.92;;;;;;;23.61;46.31;98859.59;7308074;19;130865;-40
2022/05/23 08:12:46;;;;;;;30.43;2.60;;;;;;;23.70;46.33;98863.81;7309844;19;129953;-38
2022/05/23 08:15:12;;;;;;;44.25;4.03;;;;;;;23.64;46.09;98851.38;7309142;19;129865;-39
2022/05/23 08:17:37;;;;;;;25.50;2.17;;;;;;;23.72;45.97;98861.03;7306623;19;154703;-40
2022/05/23 08:20:05;;;;;;;37.28;3.33;;;;;;;23.72;45.81;98863.66;7306333;19;159504;-38
2022/05/23 08:22:31;;;;;;;22.13;1.83;;;;;;;23.73;46.28;98854.81;7310269;19;130608;-40
2022/05/23 08:24:57;;;;;;;14.43;1.33;;;;;;;23.73;45.83;98860.03;7308410;19;129041;-39
2022/05/23 08:27:23;;;;;;;26.65;2.28;;;;;;;23.73;45.99;98850.38;7304541;19;130320;-38
2022/05/23 08:29:49;;;;;;;22.75;2.28;;;;;;;23.74;45.83;98852.00;7308397;19;131106;-41
2022/05/23 08:32:16;;;;;;;28.17;2.55;;;;;;;23.74;45.84;98844.13;7308214;19;130482;-37
2022/05/23 08:34:41;;;;;;;26.00;2.25;;;;;;;23.73;45.35;98839.88;7308243;19;129053;-39
2022/05/23 08:37:06;;;;;;;16.63;1.53;;;;;;;23.76;45.95;98834.28;7306198;19;129575;-39
2022/05/23 08:39:32;;;;;;;40.00;3.63;;;;;;;23.77;45.48;98830.66;7305006;19;158354;-38
2022/05/23 08:42:05;;;;;;;25.77;2.13;;;;;;;23.69;45.90;98828.06;7307408;19;130542;-39
2022/05/23 08:44:48;;;;;;;27.95;2.55;;;;;;;23.76;45.71;98826.41;7308583;19;129378;-40
2022/05/23 08:47:24;;;;;;;26.98;2.15;;;;;;;23.76;45.56;98828.19;7305725;19;130003;-39
2022/05/23 08:50:16;;;;;;;48.55;4.22;;;;;;;23.75;45.28;98816.88;7306181;19;129563;-39
2022/05/23 08:52:47;;;;;;;32.60;2.97;;;;;;;23.77;45.83;98817.53;7305473;19;129255;-41
2022/05/23 08:55:24;;;;;;;22.63;2.00;;;;;;;23.77;45.32;98829.81;7314480;19;129480;-37
2022/05/23 08:58:03;;;;;;;40.73;3.83;;;;;;;23.78;45.03;98819.19;7312371;19;129083;-38
2022/05/23 09:00:35;;;;;;;22.88;1.73;;;;;;;23.81;45.37;98815.38;7315962;19;129267;-39
2022/05/23 09:03:12;;;;;;;41.83;3.85;;;;;;;23.76;45.26;98818.53;7314137;19;128959;-41
2022/05/23 09:05:43;;;;;;;38.92;3.15;;;;;;;23.79;45.14;98822.59;7314195;19;131482;-38
2022/05/23 09:08:12;;;;;;;57.35;5.15;;;;;;;23.80;45.25;98811.94;7310762;19;129366;-40
2022/05/23 09:10:45;;;;;;;26.92;2.17;;;;;;;23.81;45.17;98805.72;7315706;19;130297;-41
2022/05/23 09:13:14;;;;;;;39.75;3.47;;;;;;;23.72;45.24;98787.53;7312774;19;130906;-41
2022/05/23 09:15:39;;;;;;;26.40;2.17;;;;;;;23.81;45.32;98820.63;7314892;19;129063;-41
2022/05/23 09:18:10;;;;;;;50.77;4.47;;;;;;;23.79;45.42;98807.69;7310001;19;129433;-38
2022/05/23 09:20:44;;;;;;;22.95;1.98;;;;;;;23.79;45.42;98797.19;7314894;19;129112;-39
2022/05/23 09:23:19;;;;;;;44.65;3.72;;;;;;;23.80;45.51;98792.75;7311865;19;129810;-37
2022/05/23 09:25:44;;;;;;;31.60;2.60;;;;;;;23.79;45.32;98796.34;7314270;19;129101;-38
2022/05/23 09:28:12;;;;;;;41.30;3.57;;;;;;;23.83;45.15;98795.81;7312808;19;130049;-35
2022/05/23 09:30:38;;;;;;;23.52;2.22;;;;;;;23.85;45.38;98806.97;7314066;19;130150;-41
2022/05/23 09:33:11;;;;;;;40.20;3.53;;;;;;;23.82;45.18;98790.75;7313409;19;130213;-39
2022/05/23 09:35:42;;;;;;;41.72;3.55;;;;;;;23.76;45.40;98781.78;7311463;19;129444;-39
2022/05/23 09:38:22;;;;;;;42.65;3.83;;;;;;;23.81;45.00;98779.47;7309744;19;154913;-41
2022/05/23 09:40:48;;;;;;;35.53;2.95;;;;;;;23.73;45.46;98758.50;7312539;19;130044;-41
2022/05/23 09:49:15;;;;;;;15.35;1.40;;;;;;;23.82;45.20;98765.34;7312397;19;129022;-40
2022/05/23 09:51:54;;;;;;;45.28;3.95;;;;;;;23.77;44.99;98756.34;7312583;19;129593;-37
2022/05/23 09:54:37;;;;;;;21.17;1.77;;;;;;;23.83;44.76;98780.06;7314018;19;130374;-40
2022/05/23 09:57:15;;;;;;;26.85;2.33;;;;;;;23.83;45.30;98756.44;7310870;19;128943;-37
2022/05/23 09:59:40;;;;;;;22.52;1.80;;;;;;;23.85;44.83;98748.44;7310959;19;131852;-37
2022/05/23 10:02:15;;;;;;;27.92;2.35;;;;;;;23.84;44.88;98742.34;7311249;19;158161;-41
2022/05/23 10:04:43;;;;;;;28.63;2.25;;;;;;;23.84;45.48;98725.78;7312864;19;159545;-38
2022/05/23 10:07:36;;;;;;;28.52;2.33;;;;;;;23.83;44.90;98727.56;7309610;19;130580;-41
2022/05/23 10:10:24;;;;;;;30.20;2.72;;;;;;;23.85;44.66;98722.19;7312504;19;128974;-41
2022/05/23 10:12:50;;;;;;;29.63;2.67;;;;;;;23.82;44.82;98712.84;7310358;19;158183;-37
2022/05/23 10:15:25;;;;;;;46.20;4.22;;;;;;;23.83;44.88;98709.19;7311696;19;129285;-41
2022/05/23 10:18:08;;;;;;;34.70;3.03;;;;;;;23.85;44.83;98709.84;7309327;19;132073;-35
2022/05/23 10:20:38;;;;;;;36.47;3.08;;;;;;;23.84;44.86;98708.22;7312434;19;128983;-40
2022/05/23 10:23:07;;;;;;;24.45;1.88;;;;;;;23.83;45.39;98700.53;7312281;19;129585;-42
2022/05/23 10:25:37;;;;;;;30.23;2.70;;;;;;;23.88;45.21;98690.31;7312225;19;129326;-37
2022/05/23 10:28:13;;;;;;;32.20;2.88;;;;;;;23.87;44.74;98686.03;7309320;19;130335;-40
2022/05/23 10:30:40;;;;;;;39.03;3.22;;;;;;;23.87;45.13;98686.88;7312174;19;129945;-37
2022/05/23 10:33:12;;;;;;;32.58;2.58;;;;;;;23.87;44.93;98688.66;7310633;19;131385;-41
2022/05/23 10:35:44;;;;;;;37.17;3.17;;;;;;;23.87;44.62;98684.25;7310679;19;131377;-39
2022/05/23 10:44:20;;;;;;;30.83;2.47;;;;;;;23.85;44.94;98673.09;7312467;19;128962;-37
2022/05/23 10:46:51;;;;;;;32.20;2.78;;;;;;;23.85;44.32;98659.97;7310372;19;131021;-40
2022/05/23 10:49:33;;;;;;;21.58;2.10;;;;;;;23.76;44.91;98650.56;7311339;19;130103;-40
2022/05/23 10:52:11;;;;;;;36.45;3.10;;;;;;;23.89;44.48;98648.13;7308269;19;131705;-42
2022/05/23 10:54:52;;;;;;;42.65;3.92;;;;;;;23.88;44.97;98657.00;7311248;19;129119;-41
2022/05/23 10:57:43;;;;;;;32.00;2.70;;;;;;;23.89;44.78;98645.50;7308151;19;129327;-39
2022/05/23 11:00:49;;;;;;;32.38;2.75;;;;;;;23.88;44.81;98643.88;7310767;19;129005;-38
2022/05/23 11:03:25;;;;;;;27.55;2.42;;;;;;;23.90;44.26;98636.63;7307464;19;130058;-41
2022/05/23 11:06:02;;;;;;;46.13;3.85;;;;;;;23.88;44.17;98630.75;7309588;19;129674;-39
2022/05/23 11:08:40;;;;;;;17.80;1.77;;;;;;;23.89;44.28;98615.81;7308403;19;129910;-39
2022/05/23 11:11:17;;;;;;;24.95;1.95;;;;;;;23.89;44.35;98618.44;7311499;19;129093;-40
2022/05/23 11:13:43;;;;;;;47.38;4.13;;;;;;;23.90;44.18;98602.50;7309681;19;129122;-39
2022/05/23 11:16:31;;;;;;;26.80;2.33;;;;;;;23.82;44.29;98591.25;7309511;19;158022;-38
2022/05/23 11:19:24;;;;;;;53.63;4.43;;;;;;;23.90;44.03;98612.22;7307748;19;129812;-38
2022/05/23 11:22:05;;;;;;;46.08;4.13;;;;;;;23.89;44.54;98597.44;7309733;19;130771;-37
2022/05/23 11:24:41;;;;;;;34.30;2.75;;;;;;;23.88;44.34;98599.25;7310332;19;129053;-40
2022/05/23 11:35:30;;;;;;;50.22;4.45;;;;;;;23.88;44.76;98575.63;7310633;19;129118;-39
2022/05/23 11:38:00;;;;;;;56.05;4.93;;;;;;;23.90;45.01;98565.75;7305718;19;130620;-38
2022/05/23 11:40:25;;;;;;;31.25;2.63;;;;;;;23.90;44.11;98568.38;7311080;19;130622;-39
2022/05/23 11:43:15;;;;;;;27.43;2.23;;;;;;;23.91;43.96;98574.44;7309255;19;154873;-39
2022/05/23 11:46:00;;;;;;;27.83;2.25;;;;;;;23.91;44.67;98562.16;7309517;19;129931;-37
2022/05/23 11:48:35;;;;;;;28.25;2.20;;;;;;;23.93;44.52;98551.47;7304775;19;129404;-40
2022/05/23 11:51:12;;;;;;;31.10;2.78;;;;;;;23.90;44.69;98585.97;7307739;19;129798;-38
2022/05/23 11:53:42;;;;;;;27.50;2.22;;;;;;;23.90;44.75;98557.88;7310235;19;129798;-40
2022/05/23 11:56:09;;;;;;;41.50;3.55;;;;;;;23.91;44.03;98533.28;7307743;19;130116;-39
2022/05/23 11:58:35;;;;;;;28.35;2.20;;;;;;;23.92;44.66;98544.56;7302812;19;129773;-38
2022/05/23 12:01:14;;;;;;;25.50;2.25;;;;;;;23.91;44.63;98533.28;7308460;19;130560;-37
2022/05/23 12:03:55;;;;;;;16.63;1.48;;;;;;;23.92;44.71;98534.88;7307953;19;154936;-40
2022/05/23 12:06:23;;;;;;;49.47;4.38;;;;;;;23.92;44.47;98532.28;7306021;19;129431;-40
2022/05/23 12:08:58;;;;;;;12.85;1.30;;;;;;;23.93;44.30;98528.63;7306928;19;158297;-41
2022/05/23 12:11:25;;;;;;;44.72;4.05;;;;;;;23.93;44.05;98522.59;7309201;19;130349;-41
2022/05/23 12:13:52;;;;;;;29.67;2.55;;;;;;;23.85;44.36;98497.22;7308965;19;130199;-39
2022/05/23 12:16:29;;;;;;;43.92;3.95;;;;;;;23.94;44.00;98514.53;7304204;19;129468;-38
2022/05/23 12:19:07;;;;;;;;;;;;;;;23.91;44.55;98522.78;7307736;19;131080;-41
2022/05/23 12:21:35;;;;;;;102.25;8.57;;;;;;;23.94;44.65;98529.47;7302752;19;129572;-37
2022/05/23 12:24:18;;;;;;;29.02;2.22;;;;;;;23.95;44.21;98550.28;7305878;19;154788;-40
2022/05/23 12:26:51;;;;;;;27.92;2.30;;;;;;;23.94;43.77;98548.66;7306743;19;130313;-39